PWSweather.com
Personal Weather Stations
Station Observations
WD4JKH
Forsyth, GA 31029

Forsyth, GA 31029

Lat: 33.033225, Lon: -83.927995

Elevation: 709

Station Type: Davis Vantage VUE

High Low Average
Temperature 52.2°F11.2°C 37.4°F3.0°C 44.7°F7.1°C
Dew Point 37.4°F3.0°C 28.9°F-1.7°C 32.8°F0.4°C
Winds 7.7 mph 12.4 kmh 1.0 mph 1.6 kmh 3.0 mph NW4.8 kmh NW
Wind Gusts 15.0 mph24.1 kmh 3.0 mph4.8 kmh 9.0 mph14.5 kmh
Humidity 78% 45% 63%
Pressure 30.18 in1022.0 mb 30.02 in1016.6 mb -
Precipitation 0.00 in0.0 mm - -
Hour Temp Dew Point Humidity Winds Wind Gusts Pressure Precip Precip Rate Daily Precip Total
12:01 AM 49.6°F9.8°C 37.2°F2.9°C 62% 2.6 mph NW4.2 kmh NW 8.0 mph12.9 kmh 30.02 in1016.6 mb 0.00 in0.0 mm 0.00 in0.0 mm 0.00 in0.0 mm
12:06 AM 49.5°F9.7°C 37.0°F2.8°C 62% 2.8 mph NW4.5 kmh NW 8.0 mph12.9 kmh 30.02 in1016.6 mb 0.00 in0.0 mm 0.00 in0.0 mm 0.00 in0.0 mm
12:11 AM 49.3°F9.6°C 37.3°F2.9°C 63% 1.9 mph NW3.1 kmh NW 7.0 mph11.3 kmh 30.02 in1016.6 mb 0.00 in0.0 mm 0.00 in0.0 mm 0.00 in0.0 mm
12:16 AM 49.2°F9.6°C 37.2°F2.9°C 63% 2.1 mph NW3.4 kmh NW 7.0 mph11.3 kmh 30.02 in1016.6 mb 0.00 in0.0 mm 0.00 in0.0 mm 0.00 in0.0 mm
12:21 AM 49.0°F9.4°C 37.1°F2.8°C 63% 1.2 mph NW1.9 kmh NW 7.0 mph11.3 kmh 30.02 in1016.6 mb 0.00 in0.0 mm 0.00 in0.0 mm 0.00 in0.0 mm
12:26 AM 48.8°F9.3°C 37.3°F2.9°C 64% 1.1 mph WNW1.8 kmh WNW 6.0 mph9.7 kmh 30.02 in1016.6 mb 0.00 in0.0 mm 0.00 in0.0 mm 0.00 in0.0 mm
12:31 AM 48.7°F9.3°C 37.2°F2.9°C 64% 1.4 mph NW2.3 kmh NW 6.0 mph9.7 kmh 30.03 in1016.9 mb 0.00 in0.0 mm 0.00 in0.0 mm 0.00 in0.0 mm
12:36 AM 48.5°F9.2°C 37.4°F3.0°C 65% 2.1 mph NW3.4 kmh NW 5.0 mph8.0 kmh 30.03 in1016.9 mb 0.00 in0.0 mm 0.00 in0.0 mm 0.00 in0.0 mm
12:41 AM 48.4°F9.1°C 37.3°F2.9°C 65% 2.3 mph NW3.7 kmh NW 6.0 mph9.7 kmh 30.03 in1016.9 mb 0.00 in0.0 mm 0.00 in0.0 mm 0.00 in0.0 mm
12:46 AM 48.3°F9.1°C 37.2°F2.9°C 65% 4.2 mph NW6.8 kmh NW 8.0 mph12.9 kmh 30.03 in1016.9 mb 0.00 in0.0 mm 0.00 in0.0 mm 0.00 in0.0 mm
12:50 AM 48.0°F8.9°C 36.8°F2.7°C 65% 3.8 mph NW6.1 kmh NW 9.0 mph14.5 kmh 30.03 in1016.9 mb 0.00 in0.0 mm 0.00 in0.0 mm 0.00 in0.0 mm
12:55 AM 48.0°F8.9°C 37.3°F2.9°C 66% 3.1 mph NW5.0 kmh NW 9.0 mph14.5 kmh 30.03 in1016.9 mb 0.00 in0.0 mm 0.00 in0.0 mm 0.00 in0.0 mm
01:00 AM 47.8°F8.8°C 37.1°F2.8°C 66% 4.9 mph NW7.9 kmh NW 14.0 mph22.5 kmh 30.03 in1016.9 mb 0.00 in0.0 mm 0.00 in0.0 mm 0.00 in0.0 mm
01:05 AM 47.6°F8.7°C 36.8°F2.7°C 66% 4.0 mph NNW6.4 kmh NNW 14.0 mph22.5 kmh 30.03 in1016.9 mb 0.00 in0.0 mm 0.00 in0.0 mm 0.00 in0.0 mm
01:10 AM 47.3°F8.5°C 36.6°F2.6°C 66% 3.8 mph NW6.1 kmh NW 15.0 mph24.1 kmh 30.03 in1016.9 mb 0.00 in0.0 mm 0.00 in0.0 mm 0.00 in0.0 mm
01:15 AM 47.0°F8.3°C 36.3°F2.4°C 66% 4.8 mph NW7.7 kmh NW 15.0 mph24.1 kmh 30.04 in1017.3 mb 0.00 in0.0 mm 0.00 in0.0 mm 0.00 in0.0 mm
01:20 AM 46.7°F8.2°C 36.4°F2.4°C 67% 2.2 mph NW3.5 kmh NW 15.0 mph24.1 kmh 30.04 in1017.3 mb 0.00 in0.0 mm 0.00 in0.0 mm 0.00 in0.0 mm
01:25 AM 46.6°F8.1°C 35.9°F2.2°C 66% 6.6 mph NNW10.6 kmh NNW 15.0 mph24.1 kmh 30.04 in1017.3 mb 0.00 in0.0 mm 0.00 in0.0 mm 0.00 in0.0 mm
01:30 AM 46.4°F8.0°C 35.7°F2.1°C 66% 4.7 mph NW7.6 kmh NW 15.0 mph24.1 kmh 30.04 in1017.3 mb 0.00 in0.0 mm 0.00 in0.0 mm 0.00 in0.0 mm
01:35 AM 46.1°F7.8°C 35.5°F1.9°C 66% 5.0 mph NNW8.0 kmh NNW 15.0 mph24.1 kmh 30.04 in1017.3 mb 0.00 in0.0 mm 0.00 in0.0 mm 0.00 in0.0 mm
01:40 AM 45.9°F7.7°C 35.6°F2.0°C 67% 4.0 mph NW6.4 kmh NW 15.0 mph24.1 kmh 30.04 in1017.3 mb 0.00 in0.0 mm 0.00 in0.0 mm 0.00 in0.0 mm
01:45 AM 45.8°F7.7°C 35.2°F1.8°C 66% 5.1 mph NW8.2 kmh NW 12.0 mph19.3 kmh 30.05 in1017.6 mb 0.00 in0.0 mm 0.00 in0.0 mm 0.00 in0.0 mm
01:50 AM 45.6°F7.6°C 35.0°F1.7°C 66% 4.6 mph NW7.4 kmh NW 13.0 mph20.9 kmh 30.05 in1017.6 mb 0.00 in0.0 mm 0.00 in0.0 mm 0.00 in0.0 mm
01:55 AM 45.4°F7.4°C 34.8°F1.6°C 66% 4.5 mph NW7.2 kmh NW 13.0 mph20.9 kmh 30.05 in1017.6 mb 0.00 in0.0 mm 0.00 in0.0 mm 0.00 in0.0 mm
02:00 AM 45.2°F7.3°C 34.9°F1.6°C 67% 3.1 mph NW5.0 kmh NW 13.0 mph20.9 kmh 30.05 in1017.6 mb 0.00 in0.0 mm 0.00 in0.0 mm 0.00 in0.0 mm
02:05 AM 45.1°F7.3°C 34.4°F1.3°C 66% 5.5 mph NW8.9 kmh NW 13.0 mph20.9 kmh 30.05 in1017.6 mb 0.00 in0.0 mm 0.00 in0.0 mm 0.00 in0.0 mm
02:10 AM 44.8°F7.1°C 34.6°F1.4°C 67% 2.3 mph NW3.7 kmh NW 12.0 mph19.3 kmh 30.05 in1017.6 mb 0.00 in0.0 mm 0.00 in0.0 mm 0.00 in0.0 mm
02:15 AM 44.7°F7.1°C 34.5°F1.4°C 67% 6.4 mph NW10.3 kmh NW 12.0 mph19.3 kmh 30.05 in1017.6 mb 0.00 in0.0 mm 0.00 in0.0 mm 0.00 in0.0 mm
02:20 AM 44.5°F6.9°C 34.3°F1.3°C 67% 1.9 mph NW3.1 kmh NW 12.0 mph19.3 kmh 30.05 in1017.6 mb 0.00 in0.0 mm 0.00 in0.0 mm 0.00 in0.0 mm
02:25 AM 44.4°F6.9°C 34.2°F1.2°C 67% 4.5 mph NW7.2 kmh NW 11.0 mph17.7 kmh 30.06 in1017.9 mb 0.00 in0.0 mm 0.00 in0.0 mm 0.00 in0.0 mm
02:30 AM 44.2°F6.8°C 33.9°F1.1°C 67% 4.4 mph NNW7.1 kmh NNW 11.0 mph17.7 kmh 30.06 in1017.9 mb 0.00 in0.0 mm 0.00 in0.0 mm 0.00 in0.0 mm
02:35 AM 44.0°F6.7°C 33.8°F1.0°C 67% 3.1 mph NW5.0 kmh NW 10.0 mph16.1 kmh 30.06 in1017.9 mb 0.00 in0.0 mm 0.00 in0.0 mm 0.00 in0.0 mm
02:40 AM 44.0°F6.7°C 33.8°F1.0°C 67% 2.8 mph NW4.5 kmh NW 10.0 mph16.1 kmh 30.06 in1017.9 mb 0.00 in0.0 mm 0.00 in0.0 mm 0.00 in0.0 mm
02:45 AM 43.8°F6.6°C 34.0°F1.1°C 68% 2.5 mph NW4.0 kmh NW 9.0 mph14.5 kmh 30.06 in1017.9 mb 0.00 in0.0 mm 0.00 in0.0 mm 0.00 in0.0 mm
02:50 AM 43.7°F6.5°C 33.9°F1.1°C 68% 3.2 mph NW5.1 kmh NW 9.0 mph14.5 kmh 30.06 in1017.9 mb 0.00 in0.0 mm 0.00 in0.0 mm 0.00 in0.0 mm
02:55 AM 43.7°F6.5°C 33.6°F0.9°C 67% 3.8 mph NW6.1 kmh NW 9.0 mph14.5 kmh 30.06 in1017.9 mb 0.00 in0.0 mm 0.00 in0.0 mm 0.00 in0.0 mm
03:00 AM 43.6°F6.4°C 33.8°F1.0°C 68% 3.0 mph NW4.8 kmh NW 11.0 mph17.7 kmh 30.06 in1017.9 mb 0.00 in0.0 mm 0.00 in0.0 mm 0.00 in0.0 mm
03:05 AM 43.4°F6.3°C 33.3°F0.7°C 67% 3.0 mph NW4.8 kmh NW 11.0 mph17.7 kmh 30.06 in1017.9 mb 0.00 in0.0 mm 0.00 in0.0 mm 0.00 in0.0 mm
03:10 AM 43.3°F6.3°C 33.5°F0.8°C 68% 2.4 mph NW3.9 kmh NW 11.0 mph17.7 kmh 30.06 in1017.9 mb 0.00 in0.0 mm 0.00 in0.0 mm 0.00 in0.0 mm
03:15 AM 43.2°F6.2°C 33.4°F0.8°C 68% 2.8 mph NW4.5 kmh NW 11.0 mph17.7 kmh 30.07 in1018.3 mb 0.00 in0.0 mm 0.00 in0.0 mm 0.00 in0.0 mm
03:20 AM 43.1°F6.2°C 33.3°F0.7°C 68% 2.1 mph NNW3.4 kmh NNW 9.0 mph14.5 kmh 30.06 in1017.9 mb 0.00 in0.0 mm 0.00 in0.0 mm 0.00 in0.0 mm
03:25 AM 42.9°F6.1°C 33.5°F0.8°C 69% 1.3 mph NW2.1 kmh NW 6.0 mph9.7 kmh 30.07 in1018.3 mb 0.00 in0.0 mm 0.00 in0.0 mm 0.00 in0.0 mm
03:30 AM 42.7°F5.9°C 33.7°F0.9°C 70% 1.9 mph NW3.1 kmh NW 6.0 mph9.7 kmh 30.07 in1018.3 mb 0.00 in0.0 mm 0.00 in0.0 mm 0.00 in0.0 mm
03:35 AM 42.6°F5.9°C 33.6°F0.9°C 70% 3.5 mph WNW5.6 kmh WNW 6.0 mph9.7 kmh 30.07 in1018.3 mb 0.00 in0.0 mm 0.00 in0.0 mm 0.00 in0.0 mm
03:40 AM 42.5°F5.8°C 33.5°F0.8°C 70% 2.2 mph NW3.5 kmh NW 7.0 mph11.3 kmh 30.07 in1018.3 mb 0.00 in0.0 mm 0.00 in0.0 mm 0.00 in0.0 mm
03:45 AM 42.4°F5.8°C 33.4°F0.8°C 70% 1.6 mph NW2.6 kmh NW 7.0 mph11.3 kmh 30.07 in1018.3 mb 0.00 in0.0 mm 0.00 in0.0 mm 0.00 in0.0 mm
03:50 AM 42.2°F5.7°C 33.5°F0.8°C 71% 1.4 mph WNW2.3 kmh WNW 7.0 mph11.3 kmh 30.07 in1018.3 mb 0.00 in0.0 mm 0.00 in0.0 mm 0.00 in0.0 mm
03:55 AM 42.1°F5.6°C 33.5°F0.8°C 71% 2.8 mph NW4.5 kmh NW 7.0 mph11.3 kmh 30.07 in1018.3 mb 0.00 in0.0 mm 0.00 in0.0 mm 0.00 in0.0 mm
04:00 AM 42.0°F5.6°C 33.4°F0.8°C 71% 2.0 mph NW3.2 kmh NW 6.0 mph9.7 kmh 30.07 in1018.3 mb 0.00 in0.0 mm 0.00 in0.0 mm 0.00 in0.0 mm
04:05 AM 41.8°F5.4°C 33.5°F0.8°C 72% 1.6 mph WNW2.6 kmh WNW 6.0 mph9.7 kmh 30.07 in1018.3 mb 0.00 in0.0 mm 0.00 in0.0 mm 0.00 in0.0 mm
04:10 AM 41.7°F5.4°C 33.4°F0.8°C 72% 1.6 mph WNW2.6 kmh WNW 6.0 mph9.7 kmh 30.07 in1018.3 mb 0.00 in0.0 mm 0.00 in0.0 mm 0.00 in0.0 mm
04:15 AM 41.5°F5.3°C 33.2°F0.7°C 72% 1.7 mph W2.7 kmh W 4.0 mph6.4 kmh 30.07 in1018.3 mb 0.00 in0.0 mm 0.00 in0.0 mm 0.00 in0.0 mm
04:20 AM 41.3°F5.2°C 33.4°F0.8°C 73% 1.3 mph WNW2.1 kmh WNW 4.0 mph6.4 kmh 30.07 in1018.3 mb 0.00 in0.0 mm 0.00 in0.0 mm 0.00 in0.0 mm
04:25 AM 41.1°F5.1°C 33.5°F0.8°C 74% 1.7 mph WNW2.7 kmh WNW 4.0 mph6.4 kmh 30.07 in1018.3 mb 0.00 in0.0 mm 0.00 in0.0 mm 0.00 in0.0 mm
04:30 AM 41.0°F5.0°C 33.4°F0.8°C 74% 2.2 mph WNW3.5 kmh WNW 4.0 mph6.4 kmh 30.07 in1018.3 mb 0.00 in0.0 mm 0.00 in0.0 mm 0.00 in0.0 mm
04:35 AM 40.9°F4.9°C 33.3°F0.7°C 74% 1.3 mph NW2.1 kmh NW 4.0 mph6.4 kmh 30.07 in1018.3 mb 0.00 in0.0 mm 0.00 in0.0 mm 0.00 in0.0 mm
04:40 AM 40.7°F4.8°C 33.1°F0.6°C 74% 2.2 mph WNW3.5 kmh WNW 4.0 mph6.4 kmh 30.07 in1018.3 mb 0.00 in0.0 mm 0.00 in0.0 mm 0.00 in0.0 mm
04:45 AM 40.7°F4.8°C 33.1°F0.6°C 74% 2.6 mph WNW4.2 kmh WNW 5.0 mph8.0 kmh 30.07 in1018.3 mb 0.00 in0.0 mm 0.00 in0.0 mm 0.00 in0.0 mm
04:50 AM 40.6°F4.8°C 33.0°F0.6°C 74% 1.6 mph WNW2.6 kmh WNW 5.0 mph8.0 kmh 30.07 in1018.3 mb 0.00 in0.0 mm 0.00 in0.0 mm 0.00 in0.0 mm
04:55 AM 40.4°F4.7°C 32.8°F0.4°C 74% 2.4 mph WNW3.9 kmh WNW 6.0 mph9.7 kmh 30.07 in1018.3 mb 0.00 in0.0 mm 0.00 in0.0 mm 0.00 in0.0 mm
05:00 AM 40.4°F4.7°C 32.8°F0.4°C 74% 1.9 mph WNW3.1 kmh WNW 6.0 mph9.7 kmh 30.07 in1018.3 mb 0.00 in0.0 mm 0.00 in0.0 mm 0.00 in0.0 mm
05:05 AM 40.3°F4.6°C 32.7°F0.4°C 74% 1.7 mph WNW2.7 kmh WNW 6.0 mph9.7 kmh 30.07 in1018.3 mb 0.00 in0.0 mm 0.00 in0.0 mm 0.00 in0.0 mm
05:10 AM 40.3°F4.6°C 32.7°F0.4°C 74% 2.1 mph WNW3.4 kmh WNW 6.0 mph9.7 kmh 30.08 in1018.6 mb 0.00 in0.0 mm 0.00 in0.0 mm 0.00 in0.0 mm
05:15 AM 40.2°F4.6°C 32.6°F0.3°C 74% 1.6 mph WNW2.6 kmh WNW 6.0 mph9.7 kmh 30.08 in1018.6 mb 0.00 in0.0 mm 0.00 in0.0 mm 0.00 in0.0 mm
05:20 AM 40.1°F4.5°C 32.5°F0.3°C 74% 2.6 mph WNW4.2 kmh WNW 6.0 mph9.7 kmh 30.08 in1018.6 mb 0.00 in0.0 mm 0.00 in0.0 mm 0.00 in0.0 mm
05:25 AM 40.0°F4.4°C 32.4°F0.2°C 74% 2.0 mph WNW3.2 kmh WNW 5.0 mph8.0 kmh 30.08 in1018.6 mb 0.00 in0.0 mm 0.00 in0.0 mm 0.00 in0.0 mm
05:30 AM 40.0°F4.4°C 32.4°F0.2°C 74% 1.8 mph WNW2.9 kmh WNW 5.0 mph8.0 kmh 30.08 in1018.6 mb 0.00 in0.0 mm 0.00 in0.0 mm 0.00 in0.0 mm
05:35 AM 40.0°F4.4°C 32.4°F0.2°C 74% 2.0 mph WNW3.2 kmh WNW 5.0 mph8.0 kmh 30.09 in1019.0 mb 0.00 in0.0 mm 0.00 in0.0 mm 0.00 in0.0 mm
05:40 AM 40.0°F4.4°C 32.4°F0.2°C 74% 1.6 mph W2.6 kmh W 5.0 mph8.0 kmh 30.09 in1019.0 mb 0.00 in0.0 mm 0.00 in0.0 mm 0.00 in0.0 mm
05:45 AM 39.9°F4.4°C 32.3°F0.2°C 74% 2.1 mph WNW3.4 kmh WNW 5.0 mph8.0 kmh 30.09 in1019.0 mb 0.00 in0.0 mm 0.00 in0.0 mm 0.00 in0.0 mm
05:50 AM 39.9°F4.4°C 32.3°F0.2°C 74% 2.4 mph WNW3.9 kmh WNW 6.0 mph9.7 kmh 30.09 in1019.0 mb 0.00 in0.0 mm 0.00 in0.0 mm 0.00 in0.0 mm
05:55 AM 39.9°F4.4°C 32.3°F0.2°C 74% 3.9 mph WNW6.3 kmh WNW 7.0 mph11.3 kmh 30.09 in1019.0 mb 0.00 in0.0 mm 0.00 in0.0 mm 0.00 in0.0 mm
06:00 AM 39.9°F4.4°C 32.3°F0.2°C 74% 1.6 mph WNW2.6 kmh WNW 7.0 mph11.3 kmh 30.09 in1019.0 mb 0.00 in0.0 mm 0.00 in0.0 mm 0.00 in0.0 mm
06:05 AM 39.8°F4.3°C 32.2°F0.1°C 74% 2.2 mph WNW3.5 kmh WNW 7.0 mph11.3 kmh 30.09 in1019.0 mb 0.00 in0.0 mm 0.00 in0.0 mm 0.00 in0.0 mm
06:10 AM 39.8°F4.3°C 32.2°F0.1°C 74% 2.9 mph NW4.7 kmh NW 7.0 mph11.3 kmh 30.09 in1019.0 mb 0.00 in0.0 mm 0.00 in0.0 mm 0.00 in0.0 mm
06:15 AM 39.8°F4.3°C 32.6°F0.3°C 75% 2.6 mph WNW4.2 kmh WNW 7.0 mph11.3 kmh 30.09 in1019.0 mb 0.00 in0.0 mm 0.00 in0.0 mm 0.00 in0.0 mm
06:20 AM 39.7°F4.3°C 32.5°F0.3°C 75% 1.4 mph NW2.3 kmh NW 7.0 mph11.3 kmh 30.09 in1019.0 mb 0.00 in0.0 mm 0.00 in0.0 mm 0.00 in0.0 mm
06:25 AM 39.6°F4.2°C 32.4°F0.2°C 75% 2.3 mph WNW3.7 kmh WNW 7.0 mph11.3 kmh 30.10 in1019.3 mb 0.00 in0.0 mm 0.00 in0.0 mm 0.00 in0.0 mm
06:30 AM 39.5°F4.2°C 32.2°F0.1°C 75% 2.1 mph NW3.4 kmh NW 7.0 mph11.3 kmh 30.10 in1019.3 mb 0.00 in0.0 mm 0.00 in0.0 mm 0.00 in0.0 mm
06:35 AM 39.5°F4.2°C 32.6°F0.3°C 76% 3.2 mph WNW5.1 kmh WNW 5.0 mph8.0 kmh 30.10 in1019.3 mb 0.00 in0.0 mm 0.00 in0.0 mm 0.00 in0.0 mm
06:40 AM 39.4°F4.1°C 32.5°F0.3°C 76% 1.8 mph WNW2.9 kmh WNW 5.0 mph8.0 kmh 30.10 in1019.3 mb 0.00 in0.0 mm 0.00 in0.0 mm 0.00 in0.0 mm
06:45 AM 39.3°F4.1°C 32.4°F0.2°C 76% 2.4 mph WNW3.9 kmh WNW 5.0 mph8.0 kmh 30.10 in1019.3 mb 0.00 in0.0 mm 0.00 in0.0 mm 0.00 in0.0 mm
06:49 AM 39.2°F4.0°C 32.6°F0.3°C 77% 1.4 mph NW2.3 kmh NW 5.0 mph8.0 kmh 30.10 in1019.3 mb 0.00 in0.0 mm 0.00 in0.0 mm 0.00 in0.0 mm
06:54 AM 39.1°F3.9°C 32.5°F0.3°C 77% 1.2 mph WNW1.9 kmh WNW 5.0 mph8.0 kmh 30.10 in1019.3 mb 0.00 in0.0 mm 0.00 in0.0 mm 0.00 in0.0 mm
06:59 AM 39.0°F3.9°C 32.4°F0.2°C 77% 1.6 mph WNW2.6 kmh WNW 5.0 mph8.0 kmh 30.11 in1019.6 mb 0.00 in0.0 mm 0.00 in0.0 mm 0.00 in0.0 mm
07:04 AM 38.9°F3.8°C 32.3°F0.2°C 77% 3.0 mph WNW4.8 kmh WNW 7.0 mph11.3 kmh 30.11 in1019.6 mb 0.00 in0.0 mm 0.00 in0.0 mm 0.00 in0.0 mm
07:09 AM 39.0°F3.9°C 32.4°F0.2°C 77% 2.2 mph WNW3.5 kmh WNW 7.0 mph11.3 kmh 30.11 in1019.6 mb 0.00 in0.0 mm 0.00 in0.0 mm 0.00 in0.0 mm
07:14 AM 38.9°F3.8°C 32.6°F0.3°C 78% 1.3 mph WNW2.1 kmh WNW 7.0 mph11.3 kmh 30.11 in1019.6 mb 0.00 in0.0 mm 0.00 in0.0 mm 0.00 in0.0 mm
07:19 AM 38.9°F3.8°C 32.6°F0.3°C 78% 2.2 mph WNW3.5 kmh WNW 7.0 mph11.3 kmh 30.12 in1020.0 mb 0.00 in0.0 mm 0.00 in0.0 mm 0.00 in0.0 mm
07:24 AM 38.8°F3.8°C 32.6°F0.3°C 78% 1.8 mph W2.9 kmh W 4.0 mph6.4 kmh 30.12 in1020.0 mb 0.00 in0.0 mm 0.00 in0.0 mm 0.00 in0.0 mm
07:29 AM 38.8°F3.8°C 32.6°F0.3°C 78% 1.4 mph W2.3 kmh W 5.0 mph8.0 kmh 30.12 in1020.0 mb 0.00 in0.0 mm 0.00 in0.0 mm 0.00 in0.0 mm
07:34 AM 38.8°F3.8°C 32.6°F0.3°C 78% 1.8 mph WNW2.9 kmh WNW 5.0 mph8.0 kmh 30.12 in1020.0 mb 0.00 in0.0 mm 0.00 in0.0 mm 0.00 in0.0 mm
07:39 AM 39.0°F3.9°C 32.8°F0.4°C 78% 1.0 mph WNW1.6 kmh WNW 5.0 mph8.0 kmh 30.13 in1020.3 mb 0.00 in0.0 mm 0.00 in0.0 mm 0.00 in0.0 mm
07:44 AM 39.1°F3.9°C 32.8°F0.4°C 78% 1.5 mph WNW2.4 kmh WNW 6.0 mph9.7 kmh 30.13 in1020.3 mb 0.00 in0.0 mm 0.00 in0.0 mm 0.00 in0.0 mm
07:49 AM 39.3°F4.1°C 32.7°F0.4°C 77% 3.0 mph NW4.8 kmh NW 7.0 mph11.3 kmh 30.13 in1020.3 mb 0.00 in0.0 mm 0.00 in0.0 mm 0.00 in0.0 mm
07:54 AM 39.4°F4.1°C 32.8°F0.4°C 77% 1.7 mph WNW2.7 kmh WNW 7.0 mph11.3 kmh 30.13 in1020.3 mb 0.00 in0.0 mm 0.00 in0.0 mm 0.00 in0.0 mm
07:59 AM 39.6°F4.2°C 33.0°F0.6°C 77% 2.8 mph NW4.5 kmh NW 7.0 mph11.3 kmh 30.13 in1020.3 mb 0.00 in0.0 mm 0.00 in0.0 mm 0.00 in0.0 mm
08:04 AM 39.7°F4.3°C 33.1°F0.6°C 77% 2.3 mph WNW3.7 kmh WNW 7.0 mph11.3 kmh 30.13 in1020.3 mb 0.00 in0.0 mm 0.00 in0.0 mm 0.00 in0.0 mm
08:09 AM 39.7°F4.3°C 32.8°F0.4°C 76% 2.9 mph WNW4.7 kmh WNW 7.0 mph11.3 kmh 30.13 in1020.3 mb 0.00 in0.0 mm 0.00 in0.0 mm 0.00 in0.0 mm
08:14 AM 39.9°F4.4°C 33.0°F0.6°C 76% 2.8 mph NW4.5 kmh NW 7.0 mph11.3 kmh 30.13 in1020.3 mb 0.00 in0.0 mm 0.00 in0.0 mm 0.00 in0.0 mm
08:19 AM 40.2°F4.6°C 33.3°F0.7°C 76% 2.8 mph NW4.5 kmh NW 8.0 mph12.9 kmh 30.13 in1020.3 mb 0.00 in0.0 mm 0.00 in0.0 mm 0.00 in0.0 mm
08:24 AM 40.3°F4.6°C 33.1°F0.6°C 75% 3.2 mph WNW5.1 kmh WNW 8.0 mph12.9 kmh 30.13 in1020.3 mb 0.00 in0.0 mm 0.00 in0.0 mm 0.00 in0.0 mm
08:29 AM 40.5°F4.7°C 33.3°F0.7°C 75% 3.3 mph NW5.3 kmh NW 8.0 mph12.9 kmh 30.13 in1020.3 mb 0.00 in0.0 mm 0.00 in0.0 mm 0.00 in0.0 mm
08:34 AM 40.7°F4.8°C 33.4°F0.8°C 75% 2.4 mph WNW3.9 kmh WNW 9.0 mph14.5 kmh 30.14 in1020.7 mb 0.00 in0.0 mm 0.00 in0.0 mm 0.00 in0.0 mm
08:39 AM 40.9°F4.9°C 33.3°F0.7°C 74% 6.7 mph NW10.8 kmh NW 14.0 mph22.5 kmh 30.14 in1020.7 mb 0.00 in0.0 mm 0.00 in0.0 mm 0.00 in0.0 mm
08:44 AM 41.1°F5.1°C 33.5°F0.8°C 74% 4.4 mph NW7.1 kmh NW 14.0 mph22.5 kmh 30.14 in1020.7 mb 0.00 in0.0 mm 0.00 in0.0 mm 0.00 in0.0 mm
08:49 AM 41.3°F5.2°C 33.7°F0.9°C 74% 2.6 mph NW4.2 kmh NW 14.0 mph22.5 kmh 30.14 in1020.7 mb 0.00 in0.0 mm 0.00 in0.0 mm 0.00 in0.0 mm
08:54 AM 41.6°F5.3°C 33.3°F0.7°C 72% 5.0 mph NW8.0 kmh NW 14.0 mph22.5 kmh 30.15 in1021.0 mb 0.00 in0.0 mm 0.00 in0.0 mm 0.00 in0.0 mm
08:59 AM 41.8°F5.4°C 33.5°F0.8°C 72% 3.4 mph NW5.5 kmh NW 12.0 mph19.3 kmh 30.15 in1021.0 mb 0.00 in0.0 mm 0.00 in0.0 mm 0.00 in0.0 mm
09:04 AM 41.9°F5.5°C 33.3°F0.7°C 71% 4.9 mph NW7.9 kmh NW 12.0 mph19.3 kmh 30.15 in1021.0 mb 0.00 in0.0 mm 0.00 in0.0 mm 0.00 in0.0 mm
09:09 AM 42.1°F5.6°C 33.1°F0.6°C 70% 4.7 mph NW7.6 kmh NW 10.0 mph16.1 kmh 30.15 in1021.0 mb 0.00 in0.0 mm 0.00 in0.0 mm 0.00 in0.0 mm
09:14 AM 42.3°F5.7°C 33.6°F0.9°C 71% 3.3 mph NW5.3 kmh NW 10.0 mph16.1 kmh 30.15 in1021.0 mb 0.00 in0.0 mm 0.00 in0.0 mm 0.00 in0.0 mm
09:19 AM 42.4°F5.8°C 33.0°F0.6°C 69% 6.3 mph NW10.1 kmh NW 11.0 mph17.7 kmh 30.15 in1021.0 mb 0.00 in0.0 mm 0.00 in0.0 mm 0.00 in0.0 mm
09:24 AM 42.6°F5.9°C 33.6°F0.9°C 70% 2.8 mph NW4.5 kmh NW 11.0 mph17.7 kmh 30.14 in1020.7 mb 0.00 in0.0 mm 0.00 in0.0 mm 0.00 in0.0 mm
09:29 AM 42.8°F6.0°C 33.4°F0.8°C 69% 3.3 mph NNW5.3 kmh NNW 11.0 mph17.7 kmh 30.14 in1020.7 mb 0.00 in0.0 mm 0.00 in0.0 mm 0.00 in0.0 mm
09:34 AM 43.2°F6.2°C 33.8°F1.0°C 69% 1.4 mph NW2.3 kmh NW 11.0 mph17.7 kmh 30.14 in1020.7 mb 0.00 in0.0 mm 0.00 in0.0 mm 0.00 in0.0 mm
09:39 AM 43.4°F6.3°C 33.9°F1.1°C 69% 1.7 mph NNW2.7 kmh NNW 8.0 mph12.9 kmh 30.14 in1020.7 mb 0.00 in0.0 mm 0.00 in0.0 mm 0.00 in0.0 mm
09:44 AM 43.6°F6.4°C 34.2°F1.2°C 69% 1.7 mph WNW2.7 kmh WNW 7.0 mph11.3 kmh 30.15 in1021.0 mb 0.00 in0.0 mm 0.00 in0.0 mm 0.00 in0.0 mm
09:49 AM 43.6°F6.4°C 33.5°F0.8°C 67% 3.8 mph NW6.1 kmh NW 10.0 mph16.1 kmh 30.15 in1021.0 mb 0.00 in0.0 mm 0.00 in0.0 mm 0.00 in0.0 mm
09:54 AM 43.8°F6.6°C 33.6°F0.9°C 67% 3.1 mph NNW5.0 kmh NNW 10.0 mph16.1 kmh 30.15 in1021.0 mb 0.00 in0.0 mm 0.00 in0.0 mm 0.00 in0.0 mm
09:59 AM 44.2°F6.8°C 34.0°F1.1°C 67% 1.5 mph NW2.4 kmh NW 11.0 mph17.7 kmh 30.15 in1021.0 mb 0.00 in0.0 mm 0.00 in0.0 mm 0.00 in0.0 mm
10:04 AM 44.4°F6.9°C 33.7°F0.9°C 66% 2.6 mph NW4.2 kmh NW 11.0 mph17.7 kmh 30.16 in1021.3 mb 0.00 in0.0 mm 0.00 in0.0 mm 0.00 in0.0 mm
10:09 AM 44.8°F7.1°C 34.1°F1.2°C 66% 4.9 mph NNW7.9 kmh NNW 11.0 mph17.7 kmh 30.17 in1021.7 mb 0.00 in0.0 mm 0.00 in0.0 mm 0.00 in0.0 mm
10:14 AM 44.8°F7.1°C 33.7°F0.9°C 65% 3.6 mph NW5.8 kmh NW 14.0 mph22.5 kmh 30.15 in1021.0 mb 0.00 in0.0 mm 0.00 in0.0 mm 0.00 in0.0 mm
10:19 AM 45.1°F7.3°C 34.0°F1.1°C 65% 3.2 mph NNW5.1 kmh NNW 14.0 mph22.5 kmh 30.15 in1021.0 mb 0.00 in0.0 mm 0.00 in0.0 mm 0.00 in0.0 mm
10:24 AM 45.3°F7.4°C 33.9°F1.1°C 64% 2.3 mph WNW3.7 kmh WNW 14.0 mph22.5 kmh 30.14 in1020.7 mb 0.00 in0.0 mm 0.00 in0.0 mm 0.00 in0.0 mm
10:29 AM 45.6°F7.6°C 33.8°F1.0°C 63% 4.5 mph NW7.2 kmh NW 12.0 mph19.3 kmh 30.14 in1020.7 mb 0.00 in0.0 mm 0.00 in0.0 mm 0.00 in0.0 mm
10:34 AM 45.4°F7.4°C 34.0°F1.1°C 64% 3.0 mph NW4.8 kmh NW 10.0 mph16.1 kmh 30.15 in1021.0 mb 0.00 in0.0 mm 0.00 in0.0 mm 0.00 in0.0 mm
10:39 AM 45.5°F7.5°C 33.7°F0.9°C 63% 4.9 mph WNW7.9 kmh WNW 11.0 mph17.7 kmh 30.15 in1021.0 mb 0.00 in0.0 mm 0.00 in0.0 mm 0.00 in0.0 mm
10:44 AM 45.4°F7.4°C 34.0°F1.1°C 64% 4.1 mph NW6.6 kmh NW 11.0 mph17.7 kmh 30.15 in1021.0 mb 0.00 in0.0 mm 0.00 in0.0 mm 0.00 in0.0 mm
10:49 AM 45.9°F7.7°C 34.5°F1.4°C 64% 1.6 mph NW2.6 kmh NW 11.0 mph17.7 kmh 30.15 in1021.0 mb 0.00 in0.0 mm 0.00 in0.0 mm 0.00 in0.0 mm
10:54 AM 46.5°F8.1°C 34.6°F1.4°C 63% 3.7 mph NW6.0 kmh NW 11.0 mph17.7 kmh 30.15 in1021.0 mb 0.00 in0.0 mm 0.00 in0.0 mm 0.00 in0.0 mm
10:59 AM 46.6°F8.1°C 34.8°F1.6°C 63% 4.5 mph NW7.2 kmh NW 9.0 mph14.5 kmh 30.15 in1021.0 mb 0.00 in0.0 mm 0.00 in0.0 mm 0.00 in0.0 mm
11:04 AM 46.7°F8.2°C 34.4°F1.3°C 62% 3.9 mph NNW6.3 kmh NNW 8.0 mph12.9 kmh 30.15 in1021.0 mb 0.00 in0.0 mm 0.00 in0.0 mm 0.00 in0.0 mm
11:09 AM 46.5°F8.1°C 34.2°F1.2°C 62% 3.0 mph NW4.8 kmh NW 9.0 mph14.5 kmh 30.15 in1021.0 mb 0.00 in0.0 mm 0.00 in0.0 mm 0.00 in0.0 mm
11:14 AM 47.1°F8.4°C 34.8°F1.6°C 62% 2.1 mph NW3.4 kmh NW 9.0 mph14.5 kmh 30.15 in1021.0 mb 0.00 in0.0 mm 0.00 in0.0 mm 0.00 in0.0 mm
11:19 AM 47.3°F8.5°C 34.1°F1.2°C 60% 4.1 mph NW6.6 kmh NW 9.0 mph14.5 kmh 30.14 in1020.7 mb 0.00 in0.0 mm 0.00 in0.0 mm 0.00 in0.0 mm
11:24 AM 47.3°F8.5°C 33.8°F1.0°C 59% 3.5 mph NNW5.6 kmh NNW 9.0 mph14.5 kmh 30.14 in1020.7 mb 0.00 in0.0 mm 0.00 in0.0 mm 0.00 in0.0 mm
11:29 AM 47.4°F8.6°C 33.9°F1.1°C 59% 4.2 mph NW6.8 kmh NW 9.0 mph14.5 kmh 30.13 in1020.3 mb 0.00 in0.0 mm 0.00 in0.0 mm 0.00 in0.0 mm
11:34 AM 47.4°F8.6°C 34.6°F1.4°C 61% 2.3 mph N3.7 kmh N 9.0 mph14.5 kmh 30.13 in1020.3 mb 0.00 in0.0 mm 0.00 in0.0 mm 0.00 in0.0 mm
11:39 AM 48.0°F8.9°C 35.3°F1.8°C 61% 2.1 mph N3.4 kmh N 9.0 mph14.5 kmh 30.13 in1020.3 mb 0.00 in0.0 mm 0.00 in0.0 mm 0.00 in0.0 mm
11:44 AM 48.5°F9.2°C 34.9°F1.6°C 59% 2.5 mph NNW4.0 kmh NNW 8.0 mph12.9 kmh 30.13 in1020.3 mb 0.00 in0.0 mm 0.00 in0.0 mm 0.00 in0.0 mm
11:49 AM 48.3°F9.1°C 34.3°F1.3°C 58% 6.1 mph NW9.8 kmh NW 10.0 mph16.1 kmh 30.13 in1020.3 mb 0.00 in0.0 mm 0.00 in0.0 mm 0.00 in0.0 mm
11:54 AM 48.3°F9.1°C 35.0°F1.7°C 60% 3.4 mph NW5.5 kmh NW 11.0 mph17.7 kmh 30.13 in1020.3 mb 0.00 in0.0 mm 0.00 in0.0 mm 0.00 in0.0 mm
11:59 AM 48.7°F9.3°C 34.7°F1.5°C 58% 3.8 mph WNW6.1 kmh WNW 11.0 mph17.7 kmh 30.13 in1020.3 mb 0.00 in0.0 mm 0.00 in0.0 mm 0.00 in0.0 mm
12:04 PM 48.7°F9.3°C 33.8°F1.0°C 56% 4.5 mph WNW7.2 kmh WNW 11.0 mph17.7 kmh 30.13 in1020.3 mb 0.00 in0.0 mm 0.00 in0.0 mm 0.00 in0.0 mm
12:09 PM 48.5°F9.2°C 34.0°F1.1°C 57% 2.5 mph W4.0 kmh W 11.0 mph17.7 kmh 30.12 in1020.0 mb 0.00 in0.0 mm 0.00 in0.0 mm 0.00 in0.0 mm
12:14 PM 49.1°F9.5°C 34.6°F1.4°C 57% 3.0 mph NW4.8 kmh NW 11.0 mph17.7 kmh 30.12 in1020.0 mb 0.00 in0.0 mm 0.00 in0.0 mm 0.00 in0.0 mm
12:19 PM 48.9°F9.4°C 33.9°F1.1°C 56% 3.0 mph NW4.8 kmh NW 11.0 mph17.7 kmh 30.12 in1020.0 mb 0.00 in0.0 mm 0.00 in0.0 mm 0.00 in0.0 mm
12:24 PM 49.4°F9.7°C 34.9°F1.6°C 57% 4.1 mph NW6.6 kmh NW 11.0 mph17.7 kmh 30.12 in1020.0 mb 0.00 in0.0 mm 0.00 in0.0 mm 0.00 in0.0 mm
12:29 PM 49.4°F9.7°C 34.4°F1.3°C 56% 3.7 mph WNW6.0 kmh WNW 10.0 mph16.1 kmh 30.11 in1019.6 mb 0.00 in0.0 mm 0.00 in0.0 mm 0.00 in0.0 mm
12:34 PM 49.5°F9.7°C 34.0°F1.1°C 55% 4.0 mph NW6.4 kmh NW 10.0 mph16.1 kmh 30.11 in1019.6 mb 0.00 in0.0 mm 0.00 in0.0 mm 0.00 in0.0 mm
12:39 PM 49.4°F9.7°C 33.9°F1.1°C 55% 4.6 mph WNW7.4 kmh WNW 11.0 mph17.7 kmh 30.11 in1019.6 mb 0.00 in0.0 mm 0.00 in0.0 mm 0.00 in0.0 mm
12:44 PM 49.8°F9.9°C 34.3°F1.3°C 55% 4.3 mph NW6.9 kmh NW 12.0 mph19.3 kmh 30.10 in1019.3 mb 0.00 in0.0 mm 0.00 in0.0 mm 0.00 in0.0 mm
12:48 PM 49.8°F9.9°C 34.3°F1.3°C 55% 2.4 mph NW3.9 kmh NW 12.0 mph19.3 kmh 30.10 in1019.3 mb 0.00 in0.0 mm 0.00 in0.0 mm 0.00 in0.0 mm
12:53 PM 49.9°F9.9°C 33.5°F0.8°C 53% 7.1 mph WNW11.4 kmh WNW 15.0 mph24.1 kmh 30.10 in1019.3 mb 0.00 in0.0 mm 0.00 in0.0 mm 0.00 in0.0 mm
12:58 PM 49.7°F9.8°C 33.3°F0.7°C 53% 6.3 mph WNW10.1 kmh WNW 15.0 mph24.1 kmh 30.10 in1019.3 mb 0.00 in0.0 mm 0.00 in0.0 mm 0.00 in0.0 mm
01:03 PM 49.5°F9.7°C 33.6°F0.9°C 54% 4.3 mph WNW6.9 kmh WNW 15.0 mph24.1 kmh 30.10 in1019.3 mb 0.00 in0.0 mm 0.00 in0.0 mm 0.00 in0.0 mm
01:08 PM 49.9°F9.9°C 34.4°F1.3°C 55% 3.2 mph WNW5.1 kmh WNW 15.0 mph24.1 kmh 30.10 in1019.3 mb 0.00 in0.0 mm 0.00 in0.0 mm 0.00 in0.0 mm
01:13 PM 50.4°F10.2°C 34.8°F1.6°C 55% 2.1 mph WSW3.4 kmh WSW 15.0 mph24.1 kmh 30.09 in1019.0 mb 0.00 in0.0 mm 0.00 in0.0 mm 0.00 in0.0 mm
01:18 PM 50.4°F10.2°C 33.4°F0.8°C 52% 5.1 mph WNW8.2 kmh WNW 14.0 mph22.5 kmh 30.09 in1019.0 mb 0.00 in0.0 mm 0.00 in0.0 mm 0.00 in0.0 mm
01:23 PM 50.6°F10.3°C 34.1°F1.2°C 53% 3.3 mph WNW5.3 kmh WNW 10.0 mph16.1 kmh 30.09 in1019.0 mb 0.00 in0.0 mm 0.00 in0.0 mm 0.00 in0.0 mm
01:28 PM 50.4°F10.2°C 32.9°F0.5°C 51% 5.5 mph W8.9 kmh W 11.0 mph17.7 kmh 30.09 in1019.0 mb 0.00 in0.0 mm 0.00 in0.0 mm 0.00 in0.0 mm
01:33 PM 50.5°F10.3°C 34.0°F1.1°C 53% 4.2 mph NW6.8 kmh NW 11.0 mph17.7 kmh 30.09 in1019.0 mb 0.00 in0.0 mm 0.00 in0.0 mm 0.00 in0.0 mm
01:38 PM 50.6°F10.3°C 33.6°F0.9°C 52% 5.3 mph W8.5 kmh W 12.0 mph19.3 kmh 30.08 in1018.6 mb 0.00 in0.0 mm 0.00 in0.0 mm 0.00 in0.0 mm
01:43 PM 50.4°F10.2°C 32.9°F0.5°C 51% 5.1 mph WNW8.2 kmh WNW 12.0 mph19.3 kmh 30.09 in1019.0 mb 0.00 in0.0 mm 0.00 in0.0 mm 0.00 in0.0 mm
01:48 PM 50.9°F10.5°C 34.4°F1.3°C 53% 1.3 mph NE2.1 kmh NE 12.0 mph19.3 kmh 30.08 in1018.6 mb 0.00 in0.0 mm 0.00 in0.0 mm 0.00 in0.0 mm
01:53 PM 51.6°F10.9°C 34.0°F1.1°C 51% 2.4 mph NW3.9 kmh NW 12.0 mph19.3 kmh 30.08 in1018.6 mb 0.00 in0.0 mm 0.00 in0.0 mm 0.00 in0.0 mm
01:58 PM 51.2°F10.7°C 32.6°F0.3°C 49% 3.3 mph W5.3 kmh W 15.0 mph24.1 kmh 30.08 in1018.6 mb 0.00 in0.0 mm 0.00 in0.0 mm 0.00 in0.0 mm
02:03 PM 51.1°F10.6°C 33.1°F0.6°C 50% 6.3 mph WNW10.1 kmh WNW 15.0 mph24.1 kmh 30.08 in1018.6 mb 0.00 in0.0 mm 0.00 in0.0 mm 0.00 in0.0 mm
02:08 PM 50.8°F10.4°C 32.8°F0.4°C 50% 4.3 mph NW6.9 kmh NW 15.0 mph24.1 kmh 30.08 in1018.6 mb 0.00 in0.0 mm 0.00 in0.0 mm 0.00 in0.0 mm
02:13 PM 51.2°F10.7°C 33.2°F0.7°C 50% 2.7 mph NW4.3 kmh NW 15.0 mph24.1 kmh 30.08 in1018.6 mb 0.00 in0.0 mm 0.00 in0.0 mm 0.00 in0.0 mm
02:18 PM 51.5°F10.8°C 33.4°F0.8°C 50% 3.9 mph WNW6.3 kmh WNW 12.0 mph19.3 kmh 30.08 in1018.6 mb 0.00 in0.0 mm 0.00 in0.0 mm 0.00 in0.0 mm
02:23 PM 51.2°F10.7°C 33.2°F0.7°C 50% 3.9 mph NW6.3 kmh NW 12.0 mph19.3 kmh 30.08 in1018.6 mb 0.00 in0.0 mm 0.00 in0.0 mm 0.00 in0.0 mm
02:28 PM 51.4°F10.8°C 32.9°F0.5°C 49% 3.7 mph NW6.0 kmh NW 14.0 mph22.5 kmh 30.08 in1018.6 mb 0.00 in0.0 mm 0.00 in0.0 mm 0.00 in0.0 mm
02:33 PM 51.6°F10.9°C 33.0°F0.6°C 49% 5.2 mph WNW8.4 kmh WNW 14.0 mph22.5 kmh 30.08 in1018.6 mb 0.00 in0.0 mm 0.00 in0.0 mm 0.00 in0.0 mm
02:38 PM 51.7°F10.9°C 32.0°F0.0°C 47% 5.4 mph WSW8.7 kmh WSW 14.0 mph22.5 kmh 30.08 in1018.6 mb 0.00 in0.0 mm 0.00 in0.0 mm 0.00 in0.0 mm
02:43 PM 51.6°F10.9°C 32.5°F0.3°C 48% 4.0 mph NW6.4 kmh NW 14.0 mph22.5 kmh 30.08 in1018.6 mb 0.00 in0.0 mm 0.00 in0.0 mm 0.00 in0.0 mm
02:48 PM 51.5°F10.8°C 31.9°F-0.1°C 47% 5.0 mph WNW8.0 kmh WNW 14.0 mph22.5 kmh 30.08 in1018.6 mb 0.00 in0.0 mm 0.00 in0.0 mm 0.00 in0.0 mm
02:53 PM 51.6°F10.9°C 32.5°F0.3°C 48% 5.1 mph NW8.2 kmh NW 14.0 mph22.5 kmh 30.08 in1018.6 mb 0.00 in0.0 mm 0.00 in0.0 mm 0.00 in0.0 mm
02:58 PM 51.8°F11.0°C 32.7°F0.4°C 48% 2.8 mph NW4.5 kmh NW 13.0 mph20.9 kmh 30.08 in1018.6 mb 0.00 in0.0 mm 0.00 in0.0 mm 0.00 in0.0 mm
03:03 PM 51.8°F11.0°C 31.6°F-0.2°C 46% 4.7 mph NW7.6 kmh NW 11.0 mph17.7 kmh 30.07 in1018.3 mb 0.00 in0.0 mm 0.00 in0.0 mm 0.00 in0.0 mm
03:08 PM 51.8°F11.0°C 32.1°F0.1°C 47% 5.7 mph NW9.2 kmh NW 11.0 mph17.7 kmh 30.08 in1018.6 mb 0.00 in0.0 mm 0.00 in0.0 mm 0.00 in0.0 mm
03:13 PM 51.7°F10.9°C 32.6°F0.3°C 48% 3.0 mph W4.8 kmh W 11.0 mph17.7 kmh 30.07 in1018.3 mb 0.00 in0.0 mm 0.00 in0.0 mm 0.00 in0.0 mm
03:18 PM 52.2°F11.2°C 33.0°F0.6°C 48% 4.0 mph WNW6.4 kmh WNW 11.0 mph17.7 kmh 30.07 in1018.3 mb 0.00 in0.0 mm 0.00 in0.0 mm 0.00 in0.0 mm
03:23 PM 52.1°F11.2°C 31.9°F-0.1°C 46% 4.6 mph NW7.4 kmh NW 10.0 mph16.1 kmh 30.07 in1018.3 mb 0.00 in0.0 mm 0.00 in0.0 mm 0.00 in0.0 mm
03:28 PM 51.8°F11.0°C 31.0°F-0.6°C 45% 4.6 mph WNW7.4 kmh WNW 10.0 mph16.1 kmh 30.07 in1018.3 mb 0.00 in0.0 mm 0.00 in0.0 mm 0.00 in0.0 mm
03:33 PM 51.7°F10.9°C 31.5°F-0.3°C 46% 4.0 mph NW6.4 kmh NW 10.0 mph16.1 kmh 30.07 in1018.3 mb 0.00 in0.0 mm 0.00 in0.0 mm 0.00 in0.0 mm
03:38 PM 51.6°F10.9°C 31.4°F-0.3°C 46% 3.4 mph NW5.5 kmh NW 10.0 mph16.1 kmh 30.08 in1018.6 mb 0.00 in0.0 mm 0.00 in0.0 mm 0.00 in0.0 mm
03:43 PM 51.5°F10.8°C 30.7°F-0.7°C 45% 5.9 mph W9.5 kmh W 10.0 mph16.1 kmh 30.08 in1018.6 mb 0.00 in0.0 mm 0.00 in0.0 mm 0.00 in0.0 mm
03:48 PM 51.5°F10.8°C 31.9°F-0.1°C 47% 3.9 mph WNW6.3 kmh WNW 10.0 mph16.1 kmh 30.08 in1018.6 mb 0.00 in0.0 mm 0.00 in0.0 mm 0.00 in0.0 mm
03:53 PM 51.9°F11.1°C 32.2°F0.1°C 47% 1.9 mph WNW3.1 kmh WNW 10.0 mph16.1 kmh 30.08 in1018.6 mb 0.00 in0.0 mm 0.00 in0.0 mm 0.00 in0.0 mm
03:58 PM 51.9°F11.1°C 31.7°F-0.2°C 46% 3.8 mph WNW6.1 kmh WNW 10.0 mph16.1 kmh 30.08 in1018.6 mb 0.00 in0.0 mm 0.00 in0.0 mm 0.00 in0.0 mm
04:03 PM 51.7°F10.9°C 31.5°F-0.3°C 46% 7.3 mph WNW11.7 kmh WNW 12.0 mph19.3 kmh 30.08 in1018.6 mb 0.00 in0.0 mm 0.00 in0.0 mm 0.00 in0.0 mm
04:08 PM 51.6°F10.9°C 32.0°F0.0°C 47% 3.6 mph WNW5.8 kmh WNW 12.0 mph19.3 kmh 30.08 in1018.6 mb 0.00 in0.0 mm 0.00 in0.0 mm 0.00 in0.0 mm
04:13 PM 51.4°F10.8°C 31.8°F-0.1°C 47% 3.5 mph NW5.6 kmh NW 12.0 mph19.3 kmh 30.09 in1019.0 mb 0.00 in0.0 mm 0.00 in0.0 mm 0.00 in0.0 mm
04:18 PM 51.4°F10.8°C 31.8°F-0.1°C 47% 7.7 mph WNW12.4 kmh WNW 13.0 mph20.9 kmh 30.09 in1019.0 mb 0.00 in0.0 mm 0.00 in0.0 mm 0.00 in0.0 mm
04:23 PM 51.2°F10.7°C 32.1°F0.1°C 48% 4.8 mph WNW7.7 kmh WNW 13.0 mph20.9 kmh 30.09 in1019.0 mb 0.00 in0.0 mm 0.00 in0.0 mm 0.00 in0.0 mm
04:28 PM 51.2°F10.7°C 32.2°F0.1°C 48% 3.7 mph WNW6.0 kmh WNW 13.0 mph20.9 kmh 30.09 in1019.0 mb 0.00 in0.0 mm 0.00 in0.0 mm 0.00 in0.0 mm
04:33 PM 51.1°F10.6°C 32.0°F0.0°C 48% 3.1 mph NW5.0 kmh NW 13.0 mph20.9 kmh 30.09 in1019.0 mb 0.00 in0.0 mm 0.00 in0.0 mm 0.00 in0.0 mm
04:38 PM 51.0°F10.6°C 31.9°F-0.1°C 48% 3.8 mph NW6.1 kmh NW 12.0 mph19.3 kmh 30.09 in1019.0 mb 0.00 in0.0 mm 0.00 in0.0 mm 0.00 in0.0 mm
04:43 PM 50.9°F10.5°C 31.8°F-0.1°C 48% 5.2 mph WNW8.4 kmh WNW 10.0 mph16.1 kmh 30.10 in1019.3 mb 0.00 in0.0 mm 0.00 in0.0 mm 0.00 in0.0 mm
04:48 PM 50.9°F10.5°C 31.8°F-0.1°C 48% 2.3 mph NW3.7 kmh NW 10.0 mph16.1 kmh 30.10 in1019.3 mb 0.00 in0.0 mm 0.00 in0.0 mm 0.00 in0.0 mm
04:53 PM 50.6°F10.3°C 32.1°F0.1°C 49% 3.9 mph WNW6.3 kmh WNW 10.0 mph16.1 kmh 30.10 in1019.3 mb 0.00 in0.0 mm 0.00 in0.0 mm 0.00 in0.0 mm
04:58 PM 50.4°F10.2°C 31.9°F-0.1°C 49% 2.9 mph WNW4.7 kmh WNW 10.0 mph16.1 kmh 30.10 in1019.3 mb 0.00 in0.0 mm 0.00 in0.0 mm 0.00 in0.0 mm
05:03 PM 50.3°F10.2°C 31.8°F-0.1°C 49% 4.8 mph NW7.7 kmh NW 9.0 mph14.5 kmh 30.10 in1019.3 mb 0.00 in0.0 mm 0.00 in0.0 mm 0.00 in0.0 mm
05:09 PM 50.0°F10.0°C 32.1°F0.1°C 50% 2.3 mph WNW3.7 kmh WNW 9.0 mph14.5 kmh 30.10 in1019.3 mb 0.00 in0.0 mm 0.00 in0.0 mm 0.00 in0.0 mm
05:13 PM 49.7°F9.8°C 31.8°F-0.1°C 50% 4.1 mph WNW6.6 kmh WNW 9.0 mph14.5 kmh 30.10 in1019.3 mb 0.00 in0.0 mm 0.00 in0.0 mm 0.00 in0.0 mm
05:18 PM 49.4°F9.7°C 32.0°F0.0°C 51% 2.3 mph WNW3.7 kmh WNW 8.0 mph12.9 kmh 30.11 in1019.6 mb 0.00 in0.0 mm 0.00 in0.0 mm 0.00 in0.0 mm
05:23 PM 49.1°F9.5°C 31.7°F-0.2°C 51% 2.1 mph WNW3.4 kmh WNW 8.0 mph12.9 kmh 30.11 in1019.6 mb 0.00 in0.0 mm 0.00 in0.0 mm 0.00 in0.0 mm
05:29 PM 48.8°F9.3°C 31.9°F-0.1°C 52% 3.3 mph WNW5.3 kmh WNW 7.0 mph11.3 kmh 30.11 in1019.6 mb 0.00 in0.0 mm 0.00 in0.0 mm 0.00 in0.0 mm
05:34 PM 48.5°F9.2°C 31.7°F-0.2°C 52% 2.3 mph WNW3.7 kmh WNW 7.0 mph11.3 kmh 30.11 in1019.6 mb 0.00 in0.0 mm 0.00 in0.0 mm 0.00 in0.0 mm
05:39 PM 48.2°F9.0°C 31.9°F-0.1°C 53% 2.4 mph WNW3.9 kmh WNW 7.0 mph11.3 kmh 30.11 in1019.6 mb 0.00 in0.0 mm 0.00 in0.0 mm 0.00 in0.0 mm
05:44 PM 48.0°F8.9°C 31.7°F-0.2°C 53% 2.1 mph WNW3.4 kmh WNW 7.0 mph11.3 kmh 30.11 in1019.6 mb 0.00 in0.0 mm 0.00 in0.0 mm 0.00 in0.0 mm
05:49 PM 47.8°F8.8°C 31.9°F-0.1°C 54% 1.4 mph WNW2.3 kmh WNW 6.0 mph9.7 kmh 30.11 in1019.6 mb 0.00 in0.0 mm 0.00 in0.0 mm 0.00 in0.0 mm
05:54 PM 47.6°F8.7°C 31.8°F-0.1°C 54% 2.3 mph WNW3.7 kmh WNW 6.0 mph9.7 kmh 30.11 in1019.6 mb 0.00 in0.0 mm 0.00 in0.0 mm 0.00 in0.0 mm
05:59 PM 47.3°F8.5°C 32.0°F0.0°C 55% 1.5 mph NW2.4 kmh NW 6.0 mph9.7 kmh 30.12 in1020.0 mb 0.00 in0.0 mm 0.00 in0.0 mm 0.00 in0.0 mm
06:04 PM 47.1°F8.4°C 32.2°F0.1°C 56% 1.4 mph WNW2.3 kmh WNW 6.0 mph9.7 kmh 30.12 in1020.0 mb 0.00 in0.0 mm 0.00 in0.0 mm 0.00 in0.0 mm
06:09 PM 46.9°F8.3°C 32.1°F0.1°C 56% 1.3 mph NW2.1 kmh NW 4.0 mph6.4 kmh 30.12 in1020.0 mb 0.00 in0.0 mm 0.00 in0.0 mm 0.00 in0.0 mm
06:14 PM 46.7°F8.2°C 32.3°F0.2°C 57% 1.0 mph NW1.6 kmh NW 4.0 mph6.4 kmh 30.12 in1020.0 mb 0.00 in0.0 mm 0.00 in0.0 mm 0.00 in0.0 mm
06:19 PM 46.5°F8.1°C 32.1°F0.1°C 57% 1.5 mph NW2.4 kmh NW 4.0 mph6.4 kmh 30.13 in1020.3 mb 0.00 in0.0 mm 0.00 in0.0 mm 0.00 in0.0 mm
06:24 PM 46.3°F7.9°C 31.9°F-0.1°C 57% 1.6 mph NW2.6 kmh NW 5.0 mph8.0 kmh 30.13 in1020.3 mb 0.00 in0.0 mm 0.00 in0.0 mm 0.00 in0.0 mm
06:29 PM 46.2°F7.9°C 32.3°F0.2°C 58% 2.2 mph WNW3.5 kmh WNW 5.0 mph8.0 kmh 30.13 in1020.3 mb 0.00 in0.0 mm 0.00 in0.0 mm 0.00 in0.0 mm
06:34 PM 46.1°F7.8°C 32.2°F0.1°C 58% 2.9 mph NW4.7 kmh NW 5.0 mph8.0 kmh 30.13 in1020.3 mb 0.00 in0.0 mm 0.00 in0.0 mm 0.00 in0.0 mm
06:39 PM 46.0°F7.8°C 32.1°F0.1°C 58% 2.2 mph WNW3.5 kmh WNW 6.0 mph9.7 kmh 30.13 in1020.3 mb 0.00 in0.0 mm 0.00 in0.0 mm 0.00 in0.0 mm
06:44 PM 45.8°F7.7°C 32.4°F0.2°C 59% 2.0 mph NW3.2 kmh NW 6.0 mph9.7 kmh 30.13 in1020.3 mb 0.00 in0.0 mm 0.00 in0.0 mm 0.00 in0.0 mm
06:47 PM 45.6°F7.6°C 32.2°F0.1°C 59% 1.7 mph NW2.7 kmh NW 6.0 mph9.7 kmh 30.13 in1020.3 mb 0.00 in0.0 mm 0.00 in0.0 mm 0.00 in0.0 mm
06:52 PM 45.5°F7.5°C 32.0°F0.0°C 59% 1.8 mph WNW2.9 kmh WNW 6.0 mph9.7 kmh 30.13 in1020.3 mb 0.00 in0.0 mm 0.00 in0.0 mm 0.00 in0.0 mm
06:57 PM 45.3°F7.4°C 31.8°F-0.1°C 59% 1.0 mph NW1.6 kmh NW 6.0 mph9.7 kmh 30.14 in1020.7 mb 0.00 in0.0 mm 0.00 in0.0 mm 0.00 in0.0 mm
07:02 PM 45.1°F7.3°C 32.0°F0.0°C 60% 2.7 mph NW4.3 kmh NW 6.0 mph9.7 kmh 30.14 in1020.7 mb 0.00 in0.0 mm 0.00 in0.0 mm 0.00 in0.0 mm
07:07 PM 44.9°F7.2°C 31.9°F-0.1°C 60% 1.1 mph NW1.8 kmh NW 6.0 mph9.7 kmh 30.14 in1020.7 mb 0.00 in0.0 mm 0.00 in0.0 mm 0.00 in0.0 mm
07:12 PM 44.8°F7.1°C 32.2°F0.1°C 61% 1.8 mph WNW2.9 kmh WNW 6.0 mph9.7 kmh 30.13 in1020.3 mb 0.00 in0.0 mm 0.00 in0.0 mm 0.00 in0.0 mm
07:17 PM 44.6°F7.0°C 32.1°F0.1°C 61% 1.9 mph WNW3.1 kmh WNW 5.0 mph8.0 kmh 30.14 in1020.7 mb 0.00 in0.0 mm 0.00 in0.0 mm 0.00 in0.0 mm
07:23 PM 44.4°F6.9°C 31.9°F-0.1°C 61% 2.4 mph NW3.9 kmh NW 5.0 mph8.0 kmh 30.14 in1020.7 mb 0.00 in0.0 mm 0.00 in0.0 mm 0.00 in0.0 mm
07:28 PM 44.3°F6.8°C 32.2°F0.1°C 62% 1.0 mph WNW1.6 kmh WNW 5.0 mph8.0 kmh 30.14 in1020.7 mb 0.00 in0.0 mm 0.00 in0.0 mm 0.00 in0.0 mm
07:33 PM 44.1°F6.7°C 32.0°F0.0°C 62% 1.7 mph NW2.7 kmh NW 5.0 mph8.0 kmh 30.14 in1020.7 mb 0.00 in0.0 mm 0.00 in0.0 mm 0.00 in0.0 mm
07:38 PM 44.0°F6.7°C 31.9°F-0.1°C 62% 2.7 mph NW4.3 kmh NW 7.0 mph11.3 kmh 30.14 in1020.7 mb 0.00 in0.0 mm 0.00 in0.0 mm 0.00 in0.0 mm
07:43 PM 43.9°F6.6°C 31.7°F-0.2°C 62% 2.0 mph NW3.2 kmh NW 7.0 mph11.3 kmh 30.14 in1020.7 mb 0.00 in0.0 mm 0.00 in0.0 mm 0.00 in0.0 mm
07:48 PM 43.9°F6.6°C 31.8°F-0.1°C 62% 2.7 mph NW4.3 kmh NW 7.0 mph11.3 kmh 30.15 in1021.0 mb 0.00 in0.0 mm 0.00 in0.0 mm 0.00 in0.0 mm
07:53 PM 43.8°F6.6°C 31.7°F-0.2°C 62% 3.2 mph NW5.1 kmh NW 7.0 mph11.3 kmh 30.15 in1021.0 mb 0.00 in0.0 mm 0.00 in0.0 mm 0.00 in0.0 mm
07:58 PM 43.7°F6.5°C 31.2°F-0.4°C 61% 3.2 mph NW5.1 kmh NW 7.0 mph11.3 kmh 30.15 in1021.0 mb 0.00 in0.0 mm 0.00 in0.0 mm 0.00 in0.0 mm
08:03 PM 43.6°F6.4°C 31.1°F-0.5°C 61% 3.5 mph NW5.6 kmh NW 8.0 mph12.9 kmh 30.15 in1021.0 mb 0.00 in0.0 mm 0.00 in0.0 mm 0.00 in0.0 mm
08:08 PM 43.5°F6.4°C 31.0°F-0.6°C 61% 2.3 mph WNW3.7 kmh WNW 8.0 mph12.9 kmh 30.16 in1021.3 mb 0.00 in0.0 mm 0.00 in0.0 mm 0.00 in0.0 mm
08:13 PM 43.3°F6.3°C 31.2°F-0.4°C 62% 2.9 mph NW4.7 kmh NW 10.0 mph16.1 kmh 30.16 in1021.3 mb 0.00 in0.0 mm 0.00 in0.0 mm 0.00 in0.0 mm
08:18 PM 43.1°F6.2°C 31.0°F-0.6°C 62% 3.5 mph NW5.6 kmh NW 10.0 mph16.1 kmh 30.16 in1021.3 mb 0.00 in0.0 mm 0.00 in0.0 mm 0.00 in0.0 mm
08:23 PM 43.0°F6.1°C 30.9°F-0.6°C 62% 2.9 mph NW4.7 kmh NW 10.0 mph16.1 kmh 30.16 in1021.3 mb 0.00 in0.0 mm 0.00 in0.0 mm 0.00 in0.0 mm
08:28 PM 42.7°F5.9°C 30.7°F-0.7°C 62% 3.6 mph WNW5.8 kmh WNW 10.0 mph16.1 kmh 30.16 in1021.3 mb 0.00 in0.0 mm 0.00 in0.0 mm 0.00 in0.0 mm
08:33 PM 42.6°F5.9°C 31.0°F-0.6°C 63% 3.8 mph NW6.1 kmh NW 8.0 mph12.9 kmh 30.16 in1021.3 mb 0.00 in0.0 mm 0.00 in0.0 mm 0.00 in0.0 mm
08:38 PM 42.3°F5.7°C 30.7°F-0.7°C 63% 2.5 mph NW4.0 kmh NW 8.0 mph12.9 kmh 30.16 in1021.3 mb 0.00 in0.0 mm 0.00 in0.0 mm 0.00 in0.0 mm
08:43 PM 42.0°F5.6°C 30.8°F-0.7°C 64% 1.6 mph NW2.6 kmh NW 8.0 mph12.9 kmh 30.16 in1021.3 mb 0.00 in0.0 mm 0.00 in0.0 mm 0.00 in0.0 mm
08:48 PM 41.8°F5.4°C 30.6°F-0.8°C 64% 3.0 mph WNW4.8 kmh WNW 8.0 mph12.9 kmh 30.17 in1021.7 mb 0.00 in0.0 mm 0.00 in0.0 mm 0.00 in0.0 mm
08:53 PM 41.6°F5.3°C 30.8°F-0.7°C 65% 2.2 mph NW3.5 kmh NW 6.0 mph9.7 kmh 30.17 in1021.7 mb 0.00 in0.0 mm 0.00 in0.0 mm 0.00 in0.0 mm
08:58 PM 41.5°F5.3°C 30.7°F-0.7°C 65% 2.5 mph WNW4.0 kmh WNW 6.0 mph9.7 kmh 30.17 in1021.7 mb 0.00 in0.0 mm 0.00 in0.0 mm 0.00 in0.0 mm
09:03 PM 41.4°F5.2°C 30.6°F-0.8°C 65% 2.5 mph NW4.0 kmh NW 6.0 mph9.7 kmh 30.17 in1021.7 mb 0.00 in0.0 mm 0.00 in0.0 mm 0.00 in0.0 mm
09:08 PM 41.2°F5.1°C 30.4°F-0.9°C 65% 2.2 mph WNW3.5 kmh WNW 6.0 mph9.7 kmh 30.17 in1021.7 mb 0.00 in0.0 mm 0.00 in0.0 mm 0.00 in0.0 mm
09:13 PM 41.1°F5.1°C 30.3°F-0.9°C 65% 2.6 mph NW4.2 kmh NW 6.0 mph9.7 kmh 30.17 in1021.7 mb 0.00 in0.0 mm 0.00 in0.0 mm 0.00 in0.0 mm
09:18 PM 41.0°F5.0°C 30.2°F-1.0°C 65% 2.5 mph WNW4.0 kmh WNW 6.0 mph9.7 kmh 30.17 in1021.7 mb 0.00 in0.0 mm 0.00 in0.0 mm 0.00 in0.0 mm
09:23 PM 40.8°F4.9°C 30.3°F-0.9°C 66% 2.0 mph WNW3.2 kmh WNW 6.0 mph9.7 kmh 30.17 in1021.7 mb 0.00 in0.0 mm 0.00 in0.0 mm 0.00 in0.0 mm
09:28 PM 40.7°F4.8°C 30.3°F-0.9°C 66% 1.9 mph WNW3.1 kmh WNW 6.0 mph9.7 kmh 30.17 in1021.7 mb 0.00 in0.0 mm 0.00 in0.0 mm 0.00 in0.0 mm
09:33 PM 40.6°F4.8°C 30.2°F-1.0°C 66% 1.7 mph WNW2.7 kmh WNW 6.0 mph9.7 kmh 30.17 in1021.7 mb 0.00 in0.0 mm 0.00 in0.0 mm 0.00 in0.0 mm
09:38 PM 40.4°F4.7°C 30.0°F-1.1°C 66% 2.7 mph WNW4.3 kmh WNW 6.0 mph9.7 kmh 30.17 in1021.7 mb 0.00 in0.0 mm 0.00 in0.0 mm 0.00 in0.0 mm
09:43 PM 40.3°F4.6°C 30.3°F-0.9°C 67% 2.0 mph NW3.2 kmh NW 6.0 mph9.7 kmh 30.17 in1021.7 mb 0.00 in0.0 mm 0.00 in0.0 mm 0.00 in0.0 mm
09:48 PM 40.2°F4.6°C 30.2°F-1.0°C 67% 3.7 mph NW6.0 kmh NW 7.0 mph11.3 kmh 30.17 in1021.7 mb 0.00 in0.0 mm 0.00 in0.0 mm 0.00 in0.0 mm
09:53 PM 40.1°F4.5°C 30.1°F-1.1°C 67% 2.7 mph WNW4.3 kmh WNW 7.0 mph11.3 kmh 30.17 in1021.7 mb 0.00 in0.0 mm 0.00 in0.0 mm 0.00 in0.0 mm
09:58 PM 40.1°F4.5°C 29.7°F-1.3°C 66% 2.4 mph NW3.9 kmh NW 7.0 mph11.3 kmh 30.17 in1021.7 mb 0.00 in0.0 mm 0.00 in0.0 mm 0.00 in0.0 mm
10:03 PM 40.1°F4.5°C 29.7°F-1.3°C 66% 4.1 mph NW6.6 kmh NW 9.0 mph14.5 kmh 30.18 in1022.0 mb 0.00 in0.0 mm 0.00 in0.0 mm 0.00 in0.0 mm
10:08 PM 40.0°F4.4°C 29.6°F-1.3°C 66% 2.0 mph WNW3.2 kmh WNW 9.0 mph14.5 kmh 30.18 in1022.0 mb 0.00 in0.0 mm 0.00 in0.0 mm 0.00 in0.0 mm
10:13 PM 39.9°F4.4°C 29.5°F-1.4°C 66% 2.7 mph NW4.3 kmh NW 9.0 mph14.5 kmh 30.18 in1022.0 mb 0.00 in0.0 mm 0.00 in0.0 mm 0.00 in0.0 mm
10:18 PM 39.8°F4.3°C 29.4°F-1.4°C 66% 1.4 mph WNW2.3 kmh WNW 9.0 mph14.5 kmh 30.18 in1022.0 mb 0.00 in0.0 mm 0.00 in0.0 mm 0.00 in0.0 mm
10:23 PM 39.7°F4.3°C 29.3°F-1.5°C 66% 2.5 mph WNW4.0 kmh WNW 8.0 mph12.9 kmh 30.18 in1022.0 mb 0.00 in0.0 mm 0.00 in0.0 mm 0.00 in0.0 mm
10:28 PM 39.5°F4.2°C 29.5°F-1.4°C 67% 2.4 mph NW3.9 kmh NW 8.0 mph12.9 kmh 30.18 in1022.0 mb 0.00 in0.0 mm 0.00 in0.0 mm 0.00 in0.0 mm
10:33 PM 39.3°F4.1°C 29.3°F-1.5°C 67% 2.2 mph NW3.5 kmh NW 6.0 mph9.7 kmh 30.18 in1022.0 mb 0.00 in0.0 mm 0.00 in0.0 mm 0.00 in0.0 mm
10:38 PM 39.2°F4.0°C 29.6°F-1.3°C 68% 1.1 mph NW1.8 kmh NW 6.0 mph9.7 kmh 30.18 in1022.0 mb 0.00 in0.0 mm 0.00 in0.0 mm 0.00 in0.0 mm
10:43 PM 39.1°F3.9°C 29.1°F-1.6°C 67% 1.5 mph NW2.4 kmh NW 6.0 mph9.7 kmh 30.18 in1022.0 mb 0.00 in0.0 mm 0.00 in0.0 mm 0.00 in0.0 mm
10:48 PM 39.1°F3.9°C 29.1°F-1.6°C 67% 1.7 mph NW2.7 kmh NW 5.0 mph8.0 kmh 30.18 in1022.0 mb 0.00 in0.0 mm 0.00 in0.0 mm 0.00 in0.0 mm
10:53 PM 39.0°F3.9°C 29.3°F-1.5°C 68% 1.6 mph NW2.6 kmh NW 5.0 mph8.0 kmh 30.18 in1022.0 mb 0.00 in0.0 mm 0.00 in0.0 mm 0.00 in0.0 mm
10:58 PM 38.8°F3.8°C 29.2°F-1.6°C 68% 1.4 mph NW2.3 kmh NW 7.0 mph11.3 kmh 30.18 in1022.0 mb 0.00 in0.0 mm 0.00 in0.0 mm 0.00 in0.0 mm
11:03 PM 38.8°F3.8°C 29.2°F-1.6°C 68% 1.2 mph NW1.9 kmh NW 7.0 mph11.3 kmh 30.18 in1022.0 mb 0.00 in0.0 mm 0.00 in0.0 mm 0.00 in0.0 mm
11:08 PM 38.7°F3.7°C 29.4°F-1.4°C 69% 1.2 mph NW1.9 kmh NW 7.0 mph11.3 kmh 30.18 in1022.0 mb 0.00 in0.0 mm 0.00 in0.0 mm 0.00 in0.0 mm
11:13 PM 38.6°F3.7°C 29.4°F-1.4°C 69% 1.0 mph NW1.6 kmh NW 5.0 mph8.0 kmh 30.18 in1022.0 mb 0.00 in0.0 mm 0.00 in0.0 mm 0.00 in0.0 mm
11:18 PM 38.4°F3.6°C 29.2°F-1.6°C 69% 1.0 mph NW1.6 kmh NW 5.0 mph8.0 kmh 30.18 in1022.0 mb 0.00 in0.0 mm 0.00 in0.0 mm 0.00 in0.0 mm
11:23 PM 38.2°F3.4°C 29.3°F-1.5°C 70% 1.0 mph WNW1.6 kmh WNW 4.0 mph6.4 kmh 30.18 in1022.0 mb 0.00 in0.0 mm 0.00 in0.0 mm 0.00 in0.0 mm
11:28 PM 38.0°F3.3°C 29.2°F-1.6°C 70% 1.0 mph NW1.6 kmh NW 4.0 mph6.4 kmh 30.18 in1022.0 mb 0.00 in0.0 mm 0.00 in0.0 mm 0.00 in0.0 mm
11:33 PM 37.9°F3.3°C 29.1°F-1.6°C 70% 1.6 mph WNW2.6 kmh WNW 3.0 mph4.8 kmh 30.18 in1022.0 mb 0.00 in0.0 mm 0.00 in0.0 mm 0.00 in0.0 mm
11:38 PM 37.9°F3.3°C 29.1°F-1.6°C 70% 2.0 mph WNW3.2 kmh WNW 3.0 mph4.8 kmh 30.18 in1022.0 mb 0.00 in0.0 mm 0.00 in0.0 mm 0.00 in0.0 mm
11:43 PM 37.7°F3.2°C 29.2°F-1.6°C 71% 1.5 mph WNW2.4 kmh WNW 4.0 mph6.4 kmh 30.18 in1022.0 mb 0.00 in0.0 mm 0.00 in0.0 mm 0.00 in0.0 mm
11:48 PM 37.6°F3.1°C 29.1°F-1.6°C 71% 1.5 mph NW2.4 kmh NW 4.0 mph6.4 kmh 30.18 in1022.0 mb 0.00 in0.0 mm 0.00 in0.0 mm 0.00 in0.0 mm
11:53 PM 37.5°F3.1°C 28.9°F-1.7°C 71% 1.7 mph WNW2.7 kmh WNW 4.0 mph6.4 kmh 30.18 in1022.0 mb 0.00 in0.0 mm 0.00 in0.0 mm 0.00 in0.0 mm
11:58 PM 37.4°F3.0°C 28.9°F-1.7°C 71% 1.5 mph WNW2.4 kmh WNW 4.0 mph6.4 kmh 30.18 in1022.0 mb 0.00 in0.0 mm 0.00 in0.0 mm 0.00 in0.0 mm